sensor_id;sensor_type;location;lat;lon;timestamp;pressure;altitude;pressure_sealevel;temperature;humidity
52591;BME280;38483;42.620;25.394;2023-11-19T00:00:14;96503.13;;;5.13;76.05
52591;BME280;38483;42.620;25.394;2023-11-19T00:02:41;96497.56;;;5.27;74.86
52591;BME280;38483;42.620;25.394;2023-11-19T00:05:09;96496.66;;;5.28;74.71
52591;BME280;38483;42.620;25.394;2023-11-19T00:07:39;96486.28;;;5.31;74.92
52591;BME280;38483;42.620;25.394;2023-11-19T00:10:10;96494.66;;;5.36;75.00
52591;BME280;38483;42.620;25.394;2023-11-19T00:12:39;96484.00;;;5.23;74.12
52591;BME280;38483;42.620;25.394;2023-11-19T00:15:07;96496.56;;;5.31;75.00
52591;BME280;38483;42.620;25.394;2023-11-19T00:17:39;96503.34;;;5.32;74.84
52591;BME280;38483;42.620;25.394;2023-11-19T00:20:13;96505.03;;;5.33;75.21
52591;BME280;38483;42.620;25.394;2023-11-19T00:22:41;96509.28;;;5.34;74.89
52591;BME280;38483;42.620;25.394;2023-11-19T00:25:14;96529.56;;;5.41;74.52
52591;BME280;38483;42.620;25.394;2023-11-19T00:27:45;96515.81;;;5.42;74.49
52591;BME280;38483;42.620;25.394;2023-11-19T00:30:13;96517.66;;;5.39;73.94
52591;BME280;38483;42.620;25.394;2023-11-19T00:32:41;96525.78;;;5.51;74.60
52591;BME280;38483;42.620;25.394;2023-11-19T00:35:10;96528.53;;;5.47;73.98
52591;BME280;38483;42.620;25.394;2023-11-19T00:37:38;96522.72;;;5.42;75.30
52591;BME280;38483;42.620;25.394;2023-11-19T00:40:05;96522.31;;;5.28;74.87
52591;BME280;38483;42.620;25.394;2023-11-19T00:42:33;96529.66;;;5.38;75.90
52591;BME280;38483;42.620;25.394;2023-11-19T00:45:00;96505.78;;;5.36;74.74
52591;BME280;38483;42.620;25.394;2023-11-19T00:47:29;96512.81;;;5.56;74.80
52591;BME280;38483;42.620;25.394;2023-11-19T00:49:57;96512.69;;;5.59;74.09
52591;BME280;38483;42.620;25.394;2023-11-19T00:52:24;96515.53;;;5.51;73.26
52591;BME280;38483;42.620;25.394;2023-11-19T00:54:53;96507.47;;;5.62;73.43
52591;BME280;38483;42.620;25.394;2023-11-19T00:57:20;96527.09;;;5.63;72.95
52591;BME280;38483;42.620;25.394;2023-11-19T00:59:47;96532.66;;;5.51;72.98
52591;BME280;38483;42.620;25.394;2023-11-19T01:02:14;96517.94;;;5.56;73.22
52591;BME280;38483;42.620;25.394;2023-11-19T01:04:43;96514.59;;;5.54;74.62
52591;BME280;38483;42.620;25.394;2023-11-19T01:07:11;96519.72;;;5.54;72.76
52591;BME280;38483;42.620;25.394;2023-11-19T01:09:41;96520.66;;;5.51;72.92
52591;BME280;38483;42.620;25.394;2023-11-19T01:12:08;96514.81;;;5.48;72.67
52591;BME280;38483;42.620;25.394;2023-11-19T01:14:37;96521.44;;;5.53;74.29
52591;BME280;38483;42.620;25.394;2023-11-19T01:17:05;96520.59;;;5.53;73.57
52591;BME280;38483;42.620;25.394;2023-11-19T01:19:34;96530.59;;;5.36;74.70
52591;BME280;38483;42.620;25.394;2023-11-19T01:22:02;96526.16;;;5.41;75.28
52591;BME280;38483;42.620;25.394;2023-11-19T01:24:29;96518.94;;;5.52;72.96
52591;BME280;38483;42.620;25.394;2023-11-19T01:26:58;96526.31;;;5.61;71.51
52591;BME280;38483;42.620;25.394;2023-11-19T01:29:26;96536.00;;;5.77;70.80
52591;BME280;38483;42.620;25.394;2023-11-19T01:31:53;96529.34;;;5.72;70.88
52591;BME280;38483;42.620;25.394;2023-11-19T01:34:20;96530.53;;;5.88;70.70
52591;BME280;38483;42.620;25.394;2023-11-19T01:36:47;96531.53;;;5.84;69.14
52591;BME280;38483;42.620;25.394;2023-11-19T01:39:16;96533.25;;;5.84;68.31
52591;BME280;38483;42.620;25.394;2023-11-19T01:41:47;96546.84;;;5.87;68.97
52591;BME280;38483;42.620;25.394;2023-11-19T01:44:16;96538.06;;;5.93;68.07
52591;BME280;38483;42.620;25.394;2023-11-19T01:46:44;96532.72;;;5.99;67.97
52591;BME280;38483;42.620;25.394;2023-11-19T01:49:12;96517.72;;;5.87;68.55
52591;BME280;38483;42.620;25.394;2023-11-19T01:51:40;96539.84;;;5.91;68.38
52591;BME280;38483;42.620;25.394;2023-11-19T01:54:08;96539.00;;;5.90;68.04
52591;BME280;38483;42.620;25.394;2023-11-19T01:56:35;96529.56;;;5.91;67.40
52591;BME280;38483;42.620;25.394;2023-11-19T01:59:09;96526.94;;;5.92;68.30
52591;BME280;38483;42.620;25.394;2023-11-19T02:01:36;96530.53;;;5.88;69.40
52591;BME280;38483;42.620;25.394;2023-11-19T02:04:07;96525.78;;;6.01;68.75
52591;BME280;38483;42.620;25.394;2023-11-19T02:06:40;96527.72;;;5.94;66.95
52591;BME280;38483;42.620;25.394;2023-11-19T02:09:10;96532.72;;;5.99;67.76
52591;BME280;38483;42.620;25.394;2023-11-19T02:11:39;96524.31;;;5.94;67.12
52591;BME280;38483;42.620;25.394;2023-11-19T02:14:08;96527.66;;;5.96;66.49
52591;BME280;38483;42.620;25.394;2023-11-19T02:16:36;96526.00;;;5.95;67.47
52591;BME280;38483;42.620;25.394;2023-11-19T02:19:03;96525.06;;;5.97;66.38
52591;BME280;38483;42.620;25.394;2023-11-19T02:21:52;96519.91;;;5.97;67.01
52591;BME280;38483;42.620;25.394;2023-11-19T02:24:20;96512.09;;;6.00;66.86
52591;BME280;38483;42.620;25.394;2023-11-19T02:26:59;96530.13;;;5.99;67.57
52591;BME280;38483;42.620;25.394;2023-11-19T02:29:28;96522.44;;;5.99;65.43
52591;BME280;38483;42.620;25.394;2023-11-19T02:31:56;96530.97;;;5.99;66.09
52591;BME280;38483;42.620;25.394;2023-11-19T02:34:23;96514.94;;;5.93;67.03
52591;BME280;38483;42.620;25.394;2023-11-19T02:36:50;96504.81;;;5.88;67.76
52591;BME280;38483;42.620;25.394;2023-11-19T02:39:18;96542.59;;;5.86;66.79
52591;BME280;38483;42.620;25.394;2023-11-19T02:41:50;96523.81;;;5.84;66.00
52591;BME280;38483;42.620;25.394;2023-11-19T02:44:19;96550.69;;;5.99;66.60
52591;BME280;38483;42.620;25.394;2023-11-19T02:46:47;96538.56;;;6.02;65.27
52591;BME280;38483;42.620;25.394;2023-11-19T02:49:15;96530.59;;;5.87;66.75
52591;BME280;38483;42.620;25.394;2023-11-19T02:51:42;96542.69;;;5.83;66.17
52591;BME280;38483;42.620;25.394;2023-11-19T02:54:10;96546.97;;;5.83;66.64
52591;BME280;38483;42.620;25.394;2023-11-19T02:56:42;96564.19;;;5.79;67.26
52591;BME280;38483;42.620;25.394;2023-11-19T02:59:11;96554.75;;;5.81;67.09
52591;BME280;38483;42.620;25.394;2023-11-19T03:01:54;96572.47;;;5.89;66.79
52591;BME280;38483;42.620;25.394;2023-11-19T03:04:22;96570.94;;;5.83;66.69
52591;BME280;38483;42.620;25.394;2023-11-19T03:06:50;96574.97;;;5.90;66.97
52591;BME280;38483;42.620;25.394;2023-11-19T03:09:16;96580.25;;;5.87;66.25
52591;BME280;38483;42.620;25.394;2023-11-19T03:11:44;96571.13;;;5.77;66.98
52591;BME280;38483;42.620;25.394;2023-11-19T03:14:11;96559.06;;;5.79;66.60
52591;BME280;38483;42.620;25.394;2023-11-19T03:16:38;96593.44;;;5.76;66.65
52591;BME280;38483;42.620;25.394;2023-11-19T03:19:05;96576.22;;;5.78;66.72
52591;BME280;38483;42.620;25.394;2023-11-19T03:21:33;96578.72;;;5.80;66.34
52591;BME280;38483;42.620;25.394;2023-11-19T03:24:00;96572.75;;;5.79;66.47
52591;BME280;38483;42.620;25.394;2023-11-19T03:26:28;96569.53;;;5.73;67.72
52591;BME280;38483;42.620;25.394;2023-11-19T03:28:56;96586.72;;;5.72;67.28
52591;BME280;38483;42.620;25.394;2023-11-19T03:31:23;96583.38;;;5.69;67.06
52591;BME280;38483;42.620;25.394;2023-11-19T03:33:51;96584.38;;;5.65;67.39
52591;BME280;38483;42.620;25.394;2023-11-19T03:36:20;96596.13;;;5.72;67.35
52591;BME280;38483;42.620;25.394;2023-11-19T03:38:49;96591.66;;;5.77;67.01
52591;BME280;38483;42.620;25.394;2023-11-19T03:41:16;96590.72;;;5.79;66.38
52591;BME280;38483;42.620;25.394;2023-11-19T03:43:44;96601.06;;;5.78;67.03
52591;BME280;38483;42.620;25.394;2023-11-19T03:46:21;96597.59;;;5.79;67.58
52591;BME280;38483;42.620;25.394;2023-11-19T03:48:49;96597.56;;;5.81;66.92
52591;BME280;38483;42.620;25.394;2023-11-19T03:51:16;96594.81;;;5.87;66.15
52591;BME280;38483;42.620;25.394;2023-11-19T03:53:44;96604.50;;;5.77;66.18
52591;BME280;38483;42.620;25.394;2023-11-19T03:56:12;96606.56;;;5.67;67.00
52591;BME280;38483;42.620;25.394;2023-11-19T03:58:39;96585.88;;;5.72;67.70
52591;BME280;38483;42.620;25.394;2023-11-19T04:01:16;96597.78;;;5.74;66.95
52591;BME280;38483;42.620;25.394;2023-11-19T04:03:46;96605.41;;;5.76;66.55
52591;BME280;38483;42.620;25.394;2023-11-19T04:06:16;96623.25;;;5.81;65.84
52591;BME280;38483;42.620;25.394;2023-11-19T04:08:42;96613.69;;;5.86;66.12
52591;BME280;38483;42.620;25.394;2023-11-19T04:11:10;96630.03;;;5.83;66.55
52591;BME280;38483;42.620;25.394;2023-11-19T04:13:37;96624.03;;;5.83;65.52
52591;BME280;38483;42.620;25.394;2023-11-19T04:16:05;96630.22;;;5.77;65.87
52591;BME280;38483;42.620;25.394;2023-11-19T04:18:32;96626.63;;;5.83;65.28
52591;BME280;38483;42.620;25.394;2023-11-19T04:20:59;96618.00;;;5.85;65.04
52591;BME280;38483;42.620;25.394;2023-11-19T04:23:27;96645.94;;;5.94;64.75
52591;BME280;38483;42.620;25.394;2023-11-19T04:25:54;96643.16;;;6.00;64.86
52591;BME280;38483;42.620;25.394;2023-11-19T04:28:35;96670.06;;;5.90;64.54
52591;BME280;38483;42.620;25.394;2023-11-19T04:31:02;96652.00;;;5.92;65.75
52591;BME280;38483;42.620;25.394;2023-11-19T04:33:30;96668.41;;;5.88;65.73
52591;BME280;38483;42.620;25.394;2023-11-19T04:35:57;96672.94;;;5.79;66.48
52591;BME280;38483;42.620;25.394;2023-11-19T04:38:26;96657.50;;;5.81;65.32
52591;BME280;38483;42.620;25.394;2023-11-19T04:40:54;96688.28;;;5.83;64.28
52591;BME280;38483;42.620;25.394;2023-11-19T04:43:25;96680.41;;;5.89;65.16
52591;BME280;38483;42.620;25.394;2023-11-19T04:45:52;96689.97;;;5.84;64.89
52591;BME280;38483;42.620;25.394;2023-11-19T04:48:19;96685.06;;;5.76;65.32
52591;BME280;38483;42.620;25.394;2023-11-19T04:50:46;96695.41;;;5.74;66.61
52591;BME280;38483;42.620;25.394;2023-11-19T04:53:12;96696.91;;;5.80;65.83
52591;BME280;38483;42.620;25.394;2023-11-19T04:55:42;96697.84;;;5.77;66.06
52591;BME280;38483;42.620;25.394;2023-11-19T04:58:11;96691.91;;;5.75;64.99
52591;BME280;38483;42.620;25.394;2023-11-19T05:00:39;96710.59;;;5.81;65.82
52591;BME280;38483;42.620;25.394;2023-11-19T05:03:06;96704.69;;;5.78;66.21
52591;BME280;38483;42.620;25.394;2023-11-19T05:05:34;96661.16;;;5.48;65.80
52591;BME280;38483;42.620;25.394;2023-11-19T05:08:01;96719.94;;;5.83;64.65
52591;BME280;38483;42.620;25.394;2023-11-19T05:10:28;96707.28;;;5.77;65.54
52591;BME280;38483;42.620;25.394;2023-11-19T05:12:55;96724.22;;;5.84;65.16
52591;BME280;38483;42.620;25.394;2023-11-19T05:15:23;96731.59;;;5.67;66.39
52591;BME280;38483;42.620;25.394;2023-11-19T05:17:51;96740.28;;;5.63;66.43
52591;BME280;38483;42.620;25.394;2023-11-19T05:20:18;96745.41;;;5.63;66.04
52591;BME280;38483;42.620;25.394;2023-11-19T05:22:45;96740.47;;;5.57;67.25
52591;BME280;38483;42.620;25.394;2023-11-19T05:25:12;96742.28;;;5.53;66.72
52591;BME280;38483;42.620;25.394;2023-11-19T05:27:40;96761.00;;;5.57;67.39
52591;BME280;38483;42.620;25.394;2023-11-19T05:30:08;96760.41;;;5.49;67.49
52591;BME280;38483;42.620;25.394;2023-11-19T05:32:40;96761.16;;;5.52;67.65
52591;BME280;38483;42.620;25.394;2023-11-19T05:35:08;96771.72;;;5.43;68.18
52591;BME280;38483;42.620;25.394;2023-11-19T05:37:36;96757.00;;;5.48;68.64
52591;BME280;38483;42.620;25.394;2023-11-19T05:40:04;96769.81;;;5.48;67.80
52591;BME280;38483;42.620;25.394;2023-11-19T05:42:37;96775.03;;;5.47;68.32
52591;BME280;38483;42.620;25.394;2023-11-19T05:45:03;96753.63;;;5.46;67.60
52591;BME280;38483;42.620;25.394;2023-11-19T05:47:31;96761.00;;;5.57;68.04
52591;BME280;38483;42.620;25.394;2023-11-19T05:49:59;96752.69;;;5.49;67.27
52591;BME280;38483;42.620;25.394;2023-11-19T05:52:25;96763.50;;;5.60;67.25
52591;BME280;38483;42.620;25.394;2023-11-19T05:54:54;96768.34;;;5.69;66.53
52591;BME280;38483;42.620;25.394;2023-11-19T05:57:22;96763.50;;;5.60;67.14
52591;BME280;38483;42.620;25.394;2023-11-19T05:59:52;96756.59;;;5.62;66.27
52591;BME280;38483;42.620;25.394;2023-11-19T06:02:20;96768.72;;;5.57;67.50
52591;BME280;38483;42.620;25.394;2023-11-19T06:04:48;96778.00;;;5.61;66.45
52591;BME280;38483;42.620;25.394;2023-11-19T06:07:17;96764.97;;;5.67;66.00
52591;BME280;38483;42.620;25.394;2023-11-19T06:09:44;96771.56;;;5.75;65.44
52591;BME280;38483;42.620;25.394;2023-11-19T06:12:11;96769.03;;;5.74;65.19
52591;BME280;38483;42.620;25.394;2023-11-19T06:14:39;96765.81;;;5.67;65.34
52591;BME280;38483;42.620;25.394;2023-11-19T06:17:07;96760.53;;;5.72;66.07
52591;BME280;38483;42.620;25.394;2023-11-19T06:19:38;96761.22;;;5.77;65.41
52591;BME280;38483;42.620;25.394;2023-11-19T06:22:08;96781.75;;;5.78;64.56
52591;BME280;38483;42.620;25.394;2023-11-19T06:24:36;96771.66;;;5.72;65.84
52591;BME280;38483;42.620;25.394;2023-11-19T06:27:07;96780.13;;;5.76;64.91
52591;BME280;38483;42.620;25.394;2023-11-19T06:29:34;96788.25;;;5.62;65.63
52591;BME280;38483;42.620;25.394;2023-11-19T06:32:03;96786.25;;;5.72;66.64
52591;BME280;38483;42.620;25.394;2023-11-19T06:34:41;96785.25;;;5.76;65.73
52591;BME280;38483;42.620;25.394;2023-11-19T06:37:08;96792.22;;;5.72;65.64
52591;BME280;38483;42.620;25.394;2023-11-19T06:39:36;96780.06;;;5.77;66.04
52591;BME280;38483;42.620;25.394;2023-11-19T06:42:05;96780.13;;;5.76;65.34
52591;BME280;38483;42.620;25.394;2023-11-19T06:44:48;96769.03;;;5.74;65.07
52591;BME280;38483;42.620;25.394;2023-11-19T06:47:16;96764.59;;;5.79;65.27
52591;BME280;38483;42.620;25.394;2023-11-19T06:49:48;96781.94;;;5.72;64.73
52591;BME280;38483;42.620;25.394;2023-11-19T06:52:16;96785.03;;;5.84;65.18
52591;BME280;38483;42.620;25.394;2023-11-19T06:54:43;96786.75;;;5.83;64.73
52591;BME280;38483;42.620;25.394;2023-11-19T06:57:14;96788.44;;;5.84;64.60
52591;BME280;38483;42.620;25.394;2023-11-19T06:59:43;96786.00;;;5.79;64.03
52591;BME280;38483;42.620;25.394;2023-11-19T07:02:10;96791.19;;;5.78;63.83
52591;BME280;38483;42.620;25.394;2023-11-19T07:04:39;96788.47;;;5.83;64.47
52591;BME280;38483;42.620;25.394;2023-11-19T07:07:06;96779.56;;;5.94;63.20
52591;BME280;38483;42.620;25.394;2023-11-19T07:09:34;96768.56;;;5.91;63.65
52591;BME280;38483;42.620;25.394;2023-11-19T07:12:01;96770.28;;;5.90;64.23
52591;BME280;38483;42.620;25.394;2023-11-19T07:14:31;96783.63;;;6.01;62.82
52591;BME280;38483;42.620;25.394;2023-11-19T07:16:59;96786.44;;;6.20;62.48
52591;BME280;38483;42.620;25.394;2023-11-19T07:19:28;96787.63;;;6.36;62.24
52591;BME280;38483;42.620;25.394;2023-11-19T07:21:55;96798.19;;;6.27;62.64
52591;BME280;38483;42.620;25.394;2023-11-19T07:24:25;96800.41;;;6.37;61.68
52591;BME280;38483;42.620;25.394;2023-11-19T07:26:57;96801.56;;;6.55;61.86
52591;BME280;38483;42.620;25.394;2023-11-19T07:29:27;96799.91;;;6.52;61.23
52591;BME280;38483;42.620;25.394;2023-11-19T07:31:59;96803.78;;;6.64;60.77
52591;BME280;38483;42.620;25.394;2023-11-19T07:34:28;96815.00;;;6.88;59.34
52591;BME280;38483;42.620;25.394;2023-11-19T07:36:56;96812.75;;;7.02;59.39
52591;BME280;38483;42.620;25.394;2023-11-19T07:39:26;96815.28;;;6.79;59.93
52591;BME280;38483;42.620;25.394;2023-11-19T07:41:56;96823.28;;;6.96;59.33
52591;BME280;38483;42.620;25.394;2023-11-19T07:44:25;96828.44;;;6.96;58.95
52591;BME280;38483;42.620;25.394;2023-11-19T07:46:52;96836.50;;;7.10;59.54
52591;BME280;38483;42.620;25.394;2023-11-19T07:49:21;96846.75;;;7.11;59.78
52591;BME280;38483;42.620;25.394;2023-11-19T07:51:49;96846.41;;;7.20;58.83
52591;BME280;38483;42.620;25.394;2023-11-19T07:54:20;96852.84;;;7.32;58.78
52591;BME280;38483;42.620;25.394;2023-11-19T07:56:50;96864.72;;;7.36;57.77
52591;BME280;38483;42.620;25.394;2023-11-19T07:59:18;96861.16;;;7.40;56.63
52591;BME280;38483;42.620;25.394;2023-11-19T08:01:46;96849.03;;;7.44;56.71
52591;BME280;38483;42.620;25.394;2023-11-19T08:04:16;96849.19;;;7.39;57.09
52591;BME280;38483;42.620;25.394;2023-11-19T08:06:44;96849.97;;;7.41;57.72
52591;BME280;38483;42.620;25.394;2023-11-19T08:09:12;96858.72;;;7.60;57.58
52591;BME280;38483;42.620;25.394;2023-11-19T08:11:41;96877.13;;;7.50;57.08
52591;BME280;38483;42.620;25.394;2023-11-19T08:14:08;96863.31;;;7.52;56.71
52591;BME280;38483;42.620;25.394;2023-11-19T08:16:39;96875.50;;;7.47;57.25
52591;BME280;38483;42.620;25.394;2023-11-19T08:19:06;96873.59;;;7.29;57.02
52591;BME280;38483;42.620;25.394;2023-11-19T08:21:33;96883.38;;;7.43;57.86
52591;BME280;38483;42.620;25.394;2023-11-19T08:24:01;96872.94;;;7.47;57.75
52591;BME280;38483;42.620;25.394;2023-11-19T08:26:29;96874.03;;;7.63;56.51
52591;BME280;38483;42.620;25.394;2023-11-19T08:28:56;96860.38;;;7.61;57.06
52591;BME280;38483;42.620;25.394;2023-11-19T08:31:26;96865.81;;;7.77;57.88
52591;BME280;38483;42.620;25.394;2023-11-19T08:33:54;96867.88;;;7.67;58.11
52591;BME280;38483;42.620;25.394;2023-11-19T08:36:24;96876.47;;;7.89;56.15
52591;BME280;38483;42.620;25.394;2023-11-19T08:38:54;96885.13;;;7.88;57.24
52591;BME280;38483;42.620;25.394;2023-11-19T08:41:22;96885.81;;;7.70;57.51
52591;BME280;38483;42.620;25.394;2023-11-19T08:43:52;96875.50;;;7.70;58.91
52591;BME280;38483;42.620;25.394;2023-11-19T08:46:20;96874.47;;;7.97;58.67
52591;BME280;38483;42.620;25.394;2023-11-19T08:48:56;96875.81;;;8.29;57.59
52591;BME280;38483;42.620;25.394;2023-11-19T08:51:24;96865.97;;;8.17;56.89
52591;BME280;38483;42.620;25.394;2023-11-19T08:53:51;96868.16;;;8.04;58.22
52591;BME280;38483;42.620;25.394;2023-11-19T08:56:18;96869.34;;;7.96;58.14
52591;BME280;38483;42.620;25.394;2023-11-19T08:58:46;96868.84;;;8.09;58.22
52591;BME280;38483;42.620;25.394;2023-11-19T09:01:15;96875.47;;;7.93;57.25
52591;BME280;38483;42.620;25.394;2023-11-19T09:03:44;96893.25;;;8.01;56.97
52591;BME280;38483;42.620;25.394;2023-11-19T09:06:12;96886.97;;;7.85;58.53
52591;BME280;38483;42.620;25.394;2023-11-19T09:08:39;96892.47;;;7.99;58.18
52591;BME280;38483;42.620;25.394;2023-11-19T09:11:06;96887.06;;;8.05;57.24
52591;BME280;38483;42.620;25.394;2023-11-19T09:13:35;96890.75;;;7.98;57.54
52591;BME280;38483;42.620;25.394;2023-11-19T09:16:02;96892.88;;;7.65;57.48
52591;BME280;38483;42.620;25.394;2023-11-19T09:18:33;96895.75;;;7.79;58.69
52591;BME280;38483;42.620;25.394;2023-11-19T09:21:00;96897.47;;;8.02;58.21
52591;BME280;38483;42.620;25.394;2023-11-19T09:23:28;96887.72;;;8.10;57.96
52591;BME280;38483;42.620;25.394;2023-11-19T09:25:57;96884.97;;;8.14;56.17
52591;BME280;38483;42.620;25.394;2023-11-19T09:28:25;96887.72;;;8.10;57.03
52591;BME280;38483;42.620;25.394;2023-11-19T09:30:53;96891.91;;;8.12;57.19
52591;BME280;38483;42.620;25.394;2023-11-19T09:33:20;96884.03;;;7.94;57.50
52591;BME280;38483;42.620;25.394;2023-11-19T09:35:48;96893.09;;;8.04;57.45
52591;BME280;38483;42.620;25.394;2023-11-19T09:38:18;96874.66;;;8.14;56.75
52591;BME280;38483;42.620;25.394;2023-11-19T09:40:45;96875.03;;;8.05;57.91
52591;BME280;38483;42.620;25.394;2023-11-19T09:43:12;96873.63;;;8.18;56.08
52591;BME280;38483;42.620;25.394;2023-11-19T09:45:47;96866.59;;;8.00;55.09
52591;BME280;38483;42.620;25.394;2023-11-19T09:48:18;96857.78;;;8.06;55.55
52591;BME280;38483;42.620;25.394;2023-11-19T09:50:46;96851.44;;;8.14;54.84
52591;BME280;38483;42.620;25.394;2023-11-19T09:53:13;96860.19;;;8.10;53.69
52591;BME280;38483;42.620;25.394;2023-11-19T09:55:41;96861.25;;;7.83;54.04
52591;BME280;38483;42.620;25.394;2023-11-19T09:58:09;96844.72;;;8.10;54.85
52591;BME280;38483;42.620;25.394;2023-11-19T10:00:40;96845.63;;;8.09;54.09
52591;BME280;38483;42.620;25.394;2023-11-19T10:03:07;96846.31;;;7.91;54.60
52591;BME280;38483;42.620;25.394;2023-11-19T10:05:39;96856.59;;;8.14;54.42
52591;BME280;38483;42.620;25.394;2023-11-19T10:08:07;96873.78;;;8.14;53.95
52591;BME280;38483;42.620;25.394;2023-11-19T10:10:35;96857.44;;;8.15;54.64
52591;BME280;38483;42.620;25.394;2023-11-19T10:13:01;96855.16;;;8.07;54.13
52591;BME280;38483;42.620;25.394;2023-11-19T10:15:30;96838.53;;;8.14;53.84
52591;BME280;38483;42.620;25.394;2023-11-19T10:18:02;96837.75;;;8.12;53.93
52591;BME280;38483;42.620;25.394;2023-11-19T10:20:35;96843.94;;;8.08;55.59
52591;BME280;38483;42.620;25.394;2023-11-19T10:23:04;96838.28;;;8.20;56.65
52591;BME280;38483;42.620;25.394;2023-11-19T10:25:31;96841.34;;;8.08;56.92
52591;BME280;38483;42.620;25.394;2023-11-19T10:27:59;96847.31;;;7.89;56.23
52591;BME280;38483;42.620;25.394;2023-11-19T10:30:30;96850.50;;;7.95;56.81
52591;BME280;38483;42.620;25.394;2023-11-19T10:33:08;96847.84;;;7.97;56.19
52591;BME280;38483;42.620;25.394;2023-11-19T10:35:50;96845.56;;;8.11;55.12
52591;BME280;38483;42.620;25.394;2023-11-19T10:38:25;96839.31;;;8.16;56.13
52591;BME280;38483;42.620;25.394;2023-11-19T10:40:53;96836.81;;;8.15;55.39
52591;BME280;38483;42.620;25.394;2023-11-19T10:43:24;96821.22;;;8.18;56.11
52591;BME280;38483;42.620;25.394;2023-11-19T10:45:55;96819.41;;;8.20;55.50
52591;BME280;38483;42.620;25.394;2023-11-19T10:48:39;96834.38;;;8.54;54.50
52591;BME280;38483;42.620;25.394;2023-11-19T10:51:07;96832.47;;;8.59;53.86
52591;BME280;38483;42.620;25.394;2023-11-19T10:53:35;96824.00;;;8.55;54.35
52591;BME280;38483;42.620;25.394;2023-11-19T10:56:05;96836.09;;;8.55;54.42
52591;BME280;38483;42.620;25.394;2023-11-19T10:58:36;96822.72;;;8.23;53.93
52591;BME280;38483;42.620;25.394;2023-11-19T11:01:09;96842.28;;;8.51;54.34
52591;BME280;38483;42.620;25.394;2023-11-19T11:03:39;96832.50;;;8.15;55.44
52591;BME280;38483;42.620;25.394;2023-11-19T11:06:07;96824.78;;;8.14;55.54
52591;BME280;38483;42.620;25.394;2023-11-19T11:08:37;96816.59;;;8.48;54.78
52591;BME280;38483;42.620;25.394;2023-11-19T11:11:05;96816.31;;;8.34;54.71
52591;BME280;38483;42.620;25.394;2023-11-19T11:13:33;96827.41;;;8.56;54.29
52591;BME280;38483;42.620;25.394;2023-11-19T11:16:00;96827.50;;;8.54;53.79
52591;BME280;38483;42.620;25.394;2023-11-19T11:18:28;96830.41;;;8.47;53.72
52591;BME280;38483;42.620;25.394;2023-11-19T11:21:05;96828.44;;;8.52;54.31
52591;BME280;38483;42.620;25.394;2023-11-19T11:23:44;96827.81;;;8.67;53.35
52591;BME280;38483;42.620;25.394;2023-11-19T11:29:05;96794.13;;;8.30;53.80
52591;BME280;38483;42.620;25.394;2023-11-19T11:39:18;96773.75;;;8.64;53.51
52591;BME280;38483;42.620;25.394;2023-11-19T11:42:04;96773.03;;;8.60;53.38
52591;BME280;38483;42.620;25.394;2023-11-19T11:47:21;96776.00;;;8.71;53.38
52591;BME280;38483;42.620;25.394;2023-11-19T11:49:50;96768.00;;;8.77;53.61
52591;BME280;38483;42.620;25.394;2023-11-19T11:52:27;96763.41;;;8.84;53.31
52591;BME280;38483;42.620;25.394;2023-11-19T11:55:08;96773.34;;;8.73;52.23
52591;BME280;38483;42.620;25.394;2023-11-19T11:57:36;96724.44;;;8.70;52.93
52591;BME280;38483;42.620;25.394;2023-11-19T12:00:10;96726.31;;;8.66;52.53
52591;BME280;38483;42.620;25.394;2023-11-19T12:02:40;96709.97;;;8.86;52.60
52591;BME280;38483;42.620;25.394;2023-11-19T12:05:07;96678.88;;;8.69;51.96
52591;BME280;38483;42.620;25.394;2023-11-19T12:07:34;96693.44;;;8.70;52.40
52591;BME280;38483;42.620;25.394;2023-11-19T12:10:08;96721.75;;;8.91;52.34
52591;BME280;38483;42.620;25.394;2023-11-19T12:12:36;96703.59;;;8.93;51.50
52591;BME280;38483;42.620;25.394;2023-11-19T12:15:09;96707.88;;;8.94;51.79
52591;BME280;38483;42.620;25.394;2023-11-19T12:17:46;96694.13;;;8.93;52.26
52591;BME280;38483;42.620;25.394;2023-11-19T12:20:18;96696.78;;;9.11;51.70
52591;BME280;38483;42.620;25.394;2023-11-19T12:22:49;96695.38;;;9.22;51.08
52591;BME280;38483;42.620;25.394;2023-11-19T12:25:18;96689.03;;;9.29;51.20
52591;BME280;38483;42.620;25.394;2023-11-19T12:27:50;96701.50;;;9.38;50.73
52591;BME280;38483;42.620;25.394;2023-11-19T12:30:26;96699.00;;;9.37;51.30
52591;BME280;38483;42.620;25.394;2023-11-19T12:32:54;96725.53;;;9.40;51.18
52591;BME280;38483;42.620;25.394;2023-11-19T12:35:23;96706.41;;;9.44;49.93
52591;BME280;38483;42.620;25.394;2023-11-19T12:37:51;96692.88;;;9.39;50.11
52591;BME280;38483;42.620;25.394;2023-11-19T12:40:21;96706.09;;;9.50;50.59
52591;BME280;38483;42.620;25.394;2023-11-19T12:42:53;96695.94;;;9.47;50.87
52591;BME280;38483;42.620;25.394;2023-11-19T12:45:21;96707.03;;;9.49;50.58
52591;BME280;38483;42.620;25.394;2023-11-19T12:48:04;96709.16;;;9.58;50.55
52591;BME280;38483;42.620;25.394;2023-11-19T12:50:53;96712.53;;;9.60;50.83
52591;BME280;38483;42.620;25.394;2023-11-19T12:53:21;96710.19;;;9.37;51.54
52591;BME280;38483;42.620;25.394;2023-11-19T12:55:49;96699.13;;;9.34;51.52
52591;BME280;38483;42.620;25.394;2023-11-19T12:58:34;96716.13;;;9.39;51.43
52591;BME280;38483;42.620;25.394;2023-11-19T13:01:05;96701.53;;;9.20;51.53
52591;BME280;38483;42.620;25.394;2023-11-19T13:03:35;96693.78;;;9.20;52.20
52591;BME280;38483;42.620;25.394;2023-11-19T13:06:07;96686.50;;;9.28;52.00
52591;BME280;38483;42.620;25.394;2023-11-19T13:08:48;96690.50;;;9.35;51.19
52591;BME280;38483;42.620;25.394;2023-11-19T13:11:30;96689.53;;;9.37;50.78
52591;BME280;38483;42.620;25.394;2023-11-19T13:14:04;96682.81;;;9.33;51.19
52591;BME280;38483;42.620;25.394;2023-11-19T13:16:32;96659.50;;;9.16;51.76
52591;BME280;38483;42.620;25.394;2023-11-19T13:19:00;96672.50;;;9.33;51.22
52591;BME280;38483;42.620;25.394;2023-11-19T13:21:27;96678.34;;;9.37;51.52
52591;BME280;38483;42.620;25.394;2023-11-19T13:23:55;96690.69;;;9.30;51.10